createdAt,value
2023-02-22T00:01:51.247Z,15.45
2023-02-22T00:04:21.198Z,8.43
2023-02-22T00:06:49.403Z,12.45
2023-02-22T00:09:20.586Z,13.18
2023-02-22T00:11:48.807Z,11.93
2023-02-22T00:14:15.894Z,10.60
2023-02-22T00:16:42.486Z,9.13
2023-02-22T00:19:10.586Z,11.07
2023-02-22T00:21:37.428Z,16.52
2023-02-22T00:24:23.104Z,6.65
2023-02-22T00:26:55.667Z,10.35
2023-02-22T00:29:23.426Z,10.32
2023-02-22T00:31:50.234Z,13.15
2023-02-22T00:34:16.805Z,13.07
2023-02-22T00:36:48.305Z,13.63
2023-02-22T00:39:14.945Z,18.67
2023-02-22T00:41:41.514Z,12.75
2023-02-22T00:44:08.082Z,11.63
2023-02-22T00:46:37.762Z,12.73
2023-02-22T00:49:07.144Z,11.77
2023-02-22T00:51:35.633Z,14.07
2023-02-22T00:54:02.209Z,11.45
2023-02-22T00:56:28.754Z,14.55
2023-02-22T00:58:55.329Z,16.83
2023-02-22T01:01:22.345Z,11.95
2023-02-22T01:03:48.943Z,12.30
2023-02-22T01:06:15.666Z,11.20
2023-02-22T01:08:45.242Z,16.38
2023-02-22T01:11:12.692Z,13.85
2023-02-22T01:13:39.287Z,11.73
2023-02-22T01:16:08.706Z,12.23
2023-02-22T01:18:38.116Z,13.15
2023-02-22T01:21:06.066Z,17.33
2023-02-22T01:23:32.553Z,11.18
2023-02-22T01:25:59.087Z,13.60
2023-02-22T01:28:25.647Z,12.70
2023-02-22T01:30:52.307Z,13.45
2023-02-22T01:33:18.913Z,15.27
2023-02-22T01:35:46.367Z,9.98
2023-02-22T01:38:14.199Z,13.48
2023-02-22T01:40:43.562Z,13.73
2023-02-22T01:43:30.734Z,17.75
2023-02-22T01:45:57.403Z,16.65
2023-02-22T01:48:47.785Z,11.32
2023-02-22T01:51:20.371Z,11.52
2023-02-22T01:53:55.409Z,15.18
2023-02-22T01:56:24.918Z,15.88
2023-02-22T01:58:59.370Z,12.68
2023-02-22T02:01:29.565Z,17.08
2023-02-22T02:04:01.167Z,15.05
2023-02-22T02:06:33.783Z,15.65
2023-02-22T02:09:30.234Z,21.60
2023-02-22T02:12:05.067Z,18.40
2023-02-22T02:14:32.350Z,18.02
2023-02-22T02:17:03.594Z,14.40
2023-02-22T02:20:00.684Z,12.77
2023-02-22T02:22:45.955Z,16.45
2023-02-22T02:25:30.970Z,14.35
2023-02-22T02:28:25.988Z,12.77
2023-02-22T02:31:31.466Z,17.95
2023-02-22T02:34:24.252Z,14.32
2023-02-22T02:37:35.556Z,13.88
2023-02-22T02:40:24.067Z,15.65
2023-02-22T02:42:59.144Z,12.90
2023-02-22T02:45:32.946Z,16.95
2023-02-22T02:48:03.632Z,17.02
2023-02-22T02:50:37.752Z,16.60
2023-02-22T02:53:11.056Z,12.30
2023-02-22T02:55:38.286Z,15.80
2023-02-22T02:58:07.635Z,16.63
2023-02-22T03:00:41.679Z,15.50
2023-02-22T03:03:25.371Z,14.60
2023-02-22T03:06:12.300Z,20.13
2023-02-22T03:08:52.790Z,17.65
2023-02-22T03:11:24.147Z,14.05
2023-02-22T03:14:14.586Z,13.00
2023-02-22T03:16:55.809Z,14.05
2023-02-22T03:19:50.532Z,15.05
2023-02-22T03:22:26.385Z,12.23
2023-02-22T03:25:14.465Z,20.45
2023-02-22T03:27:46.482Z,18.50
2023-02-22T03:30:39.579Z,19.35
2023-02-22T03:33:15.641Z,17.67
2023-02-22T03:35:50.937Z,15.77
2023-02-22T03:38:21.005Z,12.40
2023-02-22T03:40:52.239Z,19.95
2023-02-22T03:43:25.000Z,15.77
2023-02-22T03:45:51.946Z,13.65
2023-02-22T03:48:38.544Z,13.57
2023-02-22T03:51:06.280Z,10.90
2023-02-22T03:53:37.087Z,14.10
2023-02-22T03:56:08.572Z,18.42
2023-02-22T03:58:37.752Z,15.10
2023-02-22T04:01:04.464Z,13.55
2023-02-22T04:03:30.979Z,17.40
2023-02-22T04:05:58.007Z,13.43
2023-02-22T04:08:24.502Z,17.42
2023-02-22T04:10:51.390Z,17.10
2023-02-22T04:13:17.909Z,13.15
2023-02-22T04:15:47.571Z,13.10
2023-02-22T04:18:18.458Z,17.45
2023-02-22T04:20:48.511Z,12.70
2023-02-22T04:23:17.050Z,16.13
2023-02-22T04:25:47.572Z,10.70
2023-02-22T04:28:18.159Z,12.98
2023-02-22T04:30:48.687Z,15.48
2023-02-22T04:33:19.427Z,16.63
2023-02-22T04:35:49.534Z,12.43
2023-02-22T04:38:17.821Z,17.33
2023-02-22T04:40:47.470Z,15.35
2023-02-22T04:43:13.988Z,13.70
2023-02-22T04:45:40.528Z,16.42
2023-02-22T04:48:07.057Z,13.95
2023-02-22T04:50:33.560Z,17.50
2023-02-22T04:53:00.030Z,13.32
2023-02-22T04:55:28.126Z,16.70
2023-02-22T04:57:55.964Z,11.20
2023-02-22T05:00:22.681Z,14.45
2023-02-22T05:02:50.323Z,15.43
2023-02-22T05:05:21.447Z,11.30
2023-02-22T05:07:51.012Z,12.57
2023-02-22T05:10:21.003Z,17.73
2023-02-22T05:12:51.838Z,13.27
2023-02-22T05:15:22.134Z,12.73
2023-02-22T05:17:49.719Z,12.50
2023-02-22T05:20:29.895Z,11.88
2023-02-22T05:22:58.304Z,13.65
2023-02-22T05:25:25.691Z,13.25
2023-02-22T05:27:54.285Z,21.80
2023-02-22T05:30:25.366Z,13.32
2023-02-22T05:32:52.512Z,12.30
2023-02-22T05:35:23.258Z,18.23
2023-02-22T05:37:50.855Z,13.65
2023-02-22T05:40:19.454Z,14.30
2023-02-22T05:42:49.102Z,15.38
2023-02-22T05:45:20.982Z,17.38
2023-02-22T05:47:49.565Z,13.63
2023-02-22T05:50:19.840Z,16.00
2023-02-22T05:52:49.535Z,18.50
2023-02-22T05:55:21.733Z,24.77
2023-02-22T05:57:52.672Z,29.55
2023-02-22T06:00:27.888Z,26.38
2023-02-22T06:03:03.096Z,16.63
2023-02-22T06:05:29.973Z,12.32
2023-02-22T06:07:57.773Z,11.90
2023-02-22T06:10:25.129Z,13.10
2023-02-22T06:12:52.201Z,9.52
2023-02-22T06:15:23.251Z,15.48
2023-02-22T06:17:49.861Z,14.02
2023-02-22T06:20:19.993Z,14.60
2023-02-22T06:22:54.704Z,11.55
2023-02-22T06:25:26.579Z,16.98
2023-02-22T06:27:53.367Z,12.20
2023-02-22T06:30:24.962Z,13.23
2023-02-22T06:32:51.667Z,12.73
2023-02-22T06:35:21.975Z,12.00
2023-02-22T06:37:51.163Z,12.00
2023-02-22T06:40:21.399Z,10.77
2023-02-22T06:42:50.941Z,10.10
2023-02-22T06:45:21.544Z,11.85
2023-02-22T06:47:51.224Z,10.05
2023-02-22T06:50:26.621Z,8.80
2023-02-22T06:52:53.162Z,9.98
2023-02-22T06:55:21.780Z,11.15
2023-02-22T06:57:51.753Z,13.20
2023-02-22T07:00:25.084Z,15.30
2023-02-22T07:02:52.367Z,12.45
2023-02-22T07:05:23.994Z,12.02
2023-02-22T07:07:52.798Z,13.00
2023-02-22T07:10:28.612Z,13.77
2023-02-22T07:12:55.826Z,11.38
2023-02-22T07:15:24.558Z,17.33
2023-02-22T07:17:52.492Z,16.08
2023-02-22T07:20:24.761Z,12.80
2023-02-22T07:22:52.375Z,13.77
2023-02-22T07:25:23.446Z,14.52
2023-02-22T07:27:53.670Z,15.38
2023-02-22T07:30:28.217Z,12.05
2023-02-22T07:32:55.793Z,10.82
2023-02-22T07:35:28.658Z,11.68
2023-02-22T07:37:56.338Z,9.35
2023-02-22T07:40:23.743Z,11.50
2023-02-22T07:43:04.320Z,14.25
2023-02-22T07:45:33.910Z,14.20
2023-02-22T07:48:01.935Z,12.20
2023-02-22T07:50:32.828Z,17.95
2023-02-22T07:53:02.349Z,13.25
2023-02-22T07:55:31.008Z,15.80
2023-02-22T07:58:04.619Z,14.73
2023-02-22T08:00:34.429Z,17.40
2023-02-22T08:03:02.929Z,12.38
2023-02-22T08:05:31.363Z,13.50
2023-02-22T08:07:58.211Z,16.00
2023-02-22T08:10:26.436Z,18.40
2023-02-22T08:12:54.343Z,18.90
2023-02-22T08:15:24.247Z,13.82
2023-02-22T08:17:53.684Z,12.68
2023-02-22T08:20:23.301Z,12.02
2023-02-22T08:22:51.579Z,13.45
2023-02-22T08:25:20.852Z,11.10
2023-02-22T08:27:50.763Z,8.52
2023-02-22T08:30:22.429Z,12.65
2023-02-22T08:32:51.287Z,16.98
2023-02-22T08:35:20.594Z,15.05
2023-02-22T08:37:53.074Z,14.30
2023-02-22T08:40:24.489Z,15.38
2023-02-22T08:42:51.549Z,18.02
2023-02-22T08:45:21.118Z,12.55
2023-02-22T08:47:49.591Z,13.65
2023-02-22T08:50:24.096Z,13.15
2023-02-22T08:52:58.651Z,13.90
2023-02-22T08:55:27.747Z,19.23
2023-02-22T08:57:54.300Z,18.85
2023-02-22T09:00:24.776Z,12.52
2023-02-22T09:02:52.432Z,17.33
2023-02-22T09:05:21.012Z,11.13
2023-02-22T09:07:50.059Z,13.52
2023-02-22T09:10:20.420Z,16.13
2023-02-22T09:12:47.031Z,14.23
2023-02-22T09:15:13.581Z,15.88
2023-02-22T09:17:40.074Z,17.60
2023-02-22T09:20:08.151Z,14.82
2023-02-22T09:22:34.714Z,10.20
2023-02-22T09:25:11.353Z,18.38
2023-02-22T09:27:43.665Z,15.10
2023-02-22T09:30:36.794Z,13.30
2023-02-22T09:33:12.402Z,15.65
2023-02-22T09:35:42.564Z,10.23
2023-02-22T09:38:11.127Z,8.80
2023-02-22T09:40:45.092Z,15.40
2023-02-22T09:43:14.803Z,11.25
2023-02-22T09:45:56.586Z,11.75
2023-02-22T09:48:25.372Z,14.32
2023-02-22T09:50:58.482Z,10.68
2023-02-22T09:53:45.059Z,17.73
2023-02-22T09:56:14.640Z,15.50
2023-02-22T09:58:45.811Z,12.35
2023-02-22T10:01:28.096Z,13.73
2023-02-22T10:04:24.988Z,13.45
2023-02-22T10:07:09.968Z,15.60
2023-02-22T10:09:42.735Z,17.83
2023-02-22T10:12:12.722Z,15.90
2023-02-22T10:15:02.752Z,15.07
2023-02-22T10:17:54.061Z,13.88
2023-02-22T10:20:50.692Z,14.05
2023-02-22T10:23:28.582Z,20.42
2023-02-22T10:26:26.883Z,18.58
2023-02-22T10:29:11.949Z,15.05
2023-02-22T10:31:45.780Z,16.17
2023-02-22T10:34:25.705Z,12.63
2023-02-22T10:37:03.162Z,13.02
2023-02-22T10:39:36.533Z,16.30
2023-02-22T10:42:08.105Z,15.95
2023-02-22T10:44:39.754Z,16.92
2023-02-22T10:47:10.081Z,19.00
2023-02-22T10:49:41.986Z,12.88
2023-02-22T10:52:24.560Z,14.93
2023-02-22T10:54:52.077Z,17.83
2023-02-22T10:57:25.645Z,20.00
2023-02-22T10:59:52.505Z,27.33
2023-02-22T11:02:27.828Z,27.35
2023-02-22T11:04:57.776Z,24.30
2023-02-22T11:07:24.644Z,16.90
2023-02-22T11:09:57.820Z,17.05
2023-02-22T11:12:39.912Z,14.77
2023-02-22T11:15:21.083Z,20.55
2023-02-22T11:18:01.467Z,13.30
2023-02-22T11:20:35.081Z,17.10
2023-02-22T11:23:05.112Z,22.40
2023-02-22T11:25:42.293Z,18.08
2023-02-22T11:28:31.075Z,17.33
2023-02-22T11:31:22.332Z,16.67
2023-02-22T11:33:59.517Z,18.60
2023-02-22T11:36:30.799Z,11.85
2023-02-22T11:39:00.769Z,18.50
2023-02-22T11:41:29.900Z,16.60
2023-02-22T11:44:21.526Z,15.85
2023-02-22T11:46:50.678Z,12.30
2023-02-22T11:49:21.710Z,11.55
2023-02-22T11:52:20.626Z,12.05
2023-02-22T11:55:01.845Z,13.25
2023-02-22T11:57:46.552Z,17.95
2023-02-22T12:00:29.035Z,16.58
2023-02-22T12:03:20.850Z,10.98
2023-02-22T12:06:02.379Z,16.15
2023-02-22T12:08:54.132Z,13.45
2023-02-22T12:11:33.120Z,15.90
2023-02-22T12:14:14.824Z,16.83
2023-02-22T12:16:59.633Z,14.57
2023-02-22T12:19:38.095Z,15.13
2023-02-22T12:22:13.154Z,14.25
2023-02-22T12:24:57.945Z,14.85
2023-02-22T12:27:50.253Z,10.15
2023-02-22T12:30:38.658Z,22.15
2023-02-22T12:33:13.793Z,9.48
2023-02-22T12:35:50.820Z,14.25
2023-02-22T12:38:27.700Z,11.95
2023-02-22T12:40:54.480Z,12.88
2023-02-22T12:43:29.273Z,15.48
2023-02-22T12:46:14.295Z,13.82
2023-02-22T12:48:51.682Z,19.35
2023-02-22T12:51:22.204Z,15.05
2023-02-22T12:54:25.788Z,10.52
2023-02-22T12:57:10.087Z,11.85
2023-02-22T12:59:39.003Z,14.80
2023-02-22T13:02:21.736Z,13.73
2023-02-22T13:04:50.730Z,13.18
2023-02-22T13:07:23.047Z,9.18
2023-02-22T13:09:58.900Z,13.60
2023-02-22T13:12:57.588Z,17.25
2023-02-22T13:15:46.250Z,15.68
2023-02-22T13:18:27.907Z,17.25
2023-02-22T13:21:17.888Z,13.50
2023-02-22T13:23:55.978Z,10.45
2023-02-22T13:26:31.489Z,16.90
2023-02-22T13:29:13.854Z,15.77
2023-02-22T13:32:10.753Z,16.23
2023-02-22T13:34:37.179Z,10.38
2023-02-22T13:37:12.795Z,16.30
2023-02-22T13:40:03.248Z,14.70
2023-02-22T13:42:29.691Z,17.10
2023-02-22T13:45:27.328Z,15.65
2023-02-22T13:48:04.057Z,17.52
2023-02-22T13:51:00.750Z,21.90
2023-02-22T13:53:34.987Z,24.50
2023-02-22T13:56:02.232Z,23.23
2023-02-22T13:58:28.913Z,21.10
2023-02-22T14:00:58.058Z,20.52
2023-02-22T14:03:41.128Z,15.05
2023-02-22T14:06:11.465Z,15.30
2023-02-22T14:08:41.300Z,17.33
2023-02-22T14:11:14.418Z,27.23
2023-02-22T14:13:57.987Z,18.52
2023-02-22T14:16:27.308Z,15.38
2023-02-22T14:19:13.489Z,19.08
2023-02-22T14:21:57.552Z,20.05
2023-02-22T14:24:27.486Z,20.63
2023-02-22T14:27:04.843Z,20.77
2023-02-22T14:29:31.700Z,14.13
2023-02-22T14:32:03.044Z,15.98
2023-02-22T14:35:25.436Z,18.10
2023-02-22T14:37:57.084Z,15.27
2023-02-22T14:40:30.353Z,19.95
2023-02-22T14:43:19.909Z,13.23
2023-02-22T14:46:01.347Z,19.52
2023-02-22T14:48:42.776Z,22.05
2023-02-22T14:51:21.865Z,80.63
2023-02-22T14:54:06.430Z,71.88
2023-02-22T14:56:41.435Z,76.88
2023-02-22T14:59:21.221Z,131.63
2023-02-22T15:02:01.679Z,60.40
2023-02-22T15:04:34.933Z,20.58
2023-02-22T15:07:09.569Z,15.10
2023-02-22T15:09:37.607Z,20.60
2023-02-22T15:12:04.318Z,18.00
2023-02-22T15:14:39.179Z,20.67
2023-02-22T15:17:17.220Z,18.45
2023-02-22T15:19:43.979Z,16.98
2023-02-22T15:22:19.566Z,18.80
2023-02-22T15:24:56.705Z,22.98
2023-02-22T15:27:25.984Z,21.73
2023-02-22T15:29:59.702Z,22.10
2023-02-22T15:32:30.645Z,21.30
2023-02-22T15:35:28.421Z,18.20
2023-02-22T15:38:20.124Z,20.58
2023-02-22T15:40:50.624Z,24.13
2023-02-22T15:43:32.748Z,20.02
2023-02-22T15:46:00.899Z,22.05
2023-02-22T15:48:31.160Z,17.95
2023-02-22T15:51:04.340Z,14.18
2023-02-22T15:53:42.684Z,19.05
2023-02-22T15:56:16.354Z,12.80
2023-02-22T15:58:45.691Z,17.35
2023-02-22T16:01:17.293Z,19.70
2023-02-22T16:03:51.507Z,18.98
2023-02-22T16:06:36.039Z,14.88
2023-02-22T16:09:32.474Z,12.93
2023-02-22T16:12:24.189Z,24.15
2023-02-22T16:14:52.402Z,20.55
2023-02-22T16:17:27.927Z,16.75
2023-02-22T16:19:54.751Z,17.63
2023-02-22T16:22:36.697Z,15.15
2023-02-22T16:25:21.516Z,24.52
2023-02-22T16:27:59.378Z,26.17
2023-02-22T16:30:29.506Z,21.33
2023-02-22T16:32:58.425Z,16.10
2023-02-22T16:35:28.789Z,23.95
2023-02-22T16:38:02.222Z,19.08
2023-02-22T16:40:39.005Z,26.70
2023-02-22T16:43:14.222Z,15.35
2023-02-22T16:45:42.500Z,22.17
2023-02-22T16:48:18.653Z,22.33
2023-02-22T16:50:46.623Z,20.42
2023-02-22T16:53:13.646Z,27.85
2023-02-22T16:55:44.751Z,26.98
2023-02-22T16:58:13.777Z,20.25
2023-02-22T17:00:42.304Z,17.45
2023-02-22T17:03:15.018Z,17.13
2023-02-22T17:05:41.894Z,13.85
2023-02-22T17:08:08.506Z,19.20
2023-02-22T17:10:35.086Z,21.35
2023-02-22T17:13:16.134Z,20.50
2023-02-22T17:15:46.847Z,18.02
2023-02-22T17:18:16.319Z,18.45
2023-02-22T17:20:45.020Z,16.90
2023-02-22T17:23:12.390Z,16.15
2023-02-22T17:25:50.643Z,20.10
2023-02-22T17:28:17.254Z,22.42
2023-02-22T17:30:45.319Z,20.48
2023-02-22T17:33:16.331Z,21.20
2023-02-22T17:35:43.949Z,24.98
2023-02-22T17:38:10.517Z,22.08
2023-02-22T17:40:38.936Z,19.58
2023-02-22T17:43:08.773Z,19.50
2023-02-22T17:45:38.095Z,19.15
2023-02-22T17:48:05.533Z,24.15
2023-02-22T17:50:32.109Z,20.77
2023-02-22T17:53:03.234Z,24.20
2023-02-22T17:55:30.144Z,19.75
2023-02-22T17:57:59.341Z,21.33
2023-02-22T18:00:34.191Z,20.63
2023-02-22T18:03:10.854Z,23.40
2023-02-22T18:05:47.052Z,15.85
2023-02-22T18:08:15.826Z,17.02
2023-02-22T18:10:43.699Z,19.50
2023-02-22T18:13:14.134Z,20.92
2023-02-22T18:15:40.707Z,22.08
2023-02-22T18:18:07.461Z,21.17
2023-02-22T18:20:39.879Z,20.15
2023-02-22T18:23:08.433Z,22.05
2023-02-22T18:25:36.543Z,18.08
2023-02-22T18:28:07.842Z,21.88
2023-02-22T18:30:36.749Z,16.33
2023-02-22T18:33:04.241Z,21.60
2023-02-22T18:35:31.584Z,27.45
2023-02-22T18:38:01.390Z,24.77
2023-02-22T18:40:30.774Z,26.40
2023-02-22T18:43:00.550Z,28.77
2023-02-22T18:45:30.728Z,19.83
2023-02-22T18:48:00.889Z,20.98
2023-02-22T18:50:30.546Z,25.63
2023-02-22T18:52:59.921Z,23.83
2023-02-22T18:55:27.686Z,20.95
2023-02-22T18:57:57.730Z,23.85
2023-02-22T19:00:29.961Z,16.33
2023-02-22T19:02:58.635Z,20.40
2023-02-22T19:05:25.143Z,20.60
2023-02-22T19:07:51.686Z,21.70
2023-02-22T19:10:18.281Z,27.27
2023-02-22T19:12:44.838Z,16.67
2023-02-22T19:15:12.148Z,22.10
2023-02-22T19:17:40.617Z,18.52
2023-02-22T19:20:10.770Z,20.92
2023-02-22T19:25:05.707Z,18.13
2023-02-22T19:27:52.528Z,12.65
2023-02-22T19:30:19.098Z,16.67
2023-02-22T19:32:47.442Z,22.92
2023-02-22T19:35:28.616Z,12.65
2023-02-22T19:37:56.107Z,15.85
2023-02-22T19:40:23.290Z,17.25
2023-02-22T19:42:51.592Z,16.02
2023-02-22T19:45:22.360Z,18.10
2023-02-22T19:47:54.052Z,16.33
2023-02-22T19:50:21.679Z,17.45
2023-02-22T19:53:04.667Z,12.10
2023-02-22T19:55:32.350Z,16.17
2023-02-22T19:58:03.329Z,14.63
2023-02-22T20:00:35.780Z,11.95
2023-02-22T20:03:06.433Z,17.48
2023-02-22T20:05:37.313Z,16.63
2023-02-22T20:08:04.182Z,19.95
2023-02-22T20:10:34.999Z,20.20
2023-02-22T20:13:02.176Z,17.13
2023-02-22T20:15:33.260Z,19.95
2023-02-22T20:18:02.724Z,17.85
2023-02-22T20:20:33.495Z,21.65
2023-02-22T20:23:01.511Z,23.50
2023-02-22T20:25:28.044Z,17.52
2023-02-22T20:27:56.525Z,18.52
2023-02-22T20:30:25.070Z,16.35
2023-02-22T20:32:51.779Z,20.98
2023-02-22T20:35:18.435Z,15.55
2023-02-22T20:37:44.973Z,15.98
2023-02-22T20:40:11.592Z,14.60
2023-02-22T20:42:40.526Z,22.55
2023-02-22T20:45:08.851Z,17.38
2023-02-22T20:47:36.424Z,17.95
2023-02-22T20:50:03.362Z,14.73
2023-02-22T20:52:33.366Z,16.00
2023-02-22T20:55:04.246Z,19.33
2023-02-22T20:57:33.836Z,12.93
2023-02-22T21:00:04.840Z,11.27
2023-02-22T21:02:36.829Z,10.00
2023-02-22T21:05:03.469Z,9.48
2023-02-22T21:07:33.705Z,13.88
2023-02-22T21:10:06.063Z,14.80
2023-02-22T21:12:34.887Z,12.13
2023-02-22T21:15:01.948Z,9.48
2023-02-22T21:17:31.534Z,11.88
2023-02-22T21:20:01.179Z,8.38
2023-02-22T21:22:27.690Z,12.05
2023-02-22T21:24:54.227Z,8.55
2023-02-22T21:27:20.735Z,8.98
2023-02-22T21:29:47.305Z,9.07
2023-02-22T21:32:14.120Z,9.30
2023-02-22T21:34:40.938Z,7.03
2023-02-22T21:37:08.365Z,12.40
2023-02-22T21:39:35.467Z,9.57
2023-02-22T21:42:07.169Z,12.23
2023-02-22T21:44:33.726Z,5.88
2023-02-22T21:47:02.090Z,10.10
2023-02-22T21:49:29.048Z,12.40
2023-02-22T21:51:57.591Z,10.65
2023-02-22T21:54:24.230Z,6.63
2023-02-22T21:56:50.834Z,11.27
2023-02-22T21:59:20.266Z,9.00
2023-02-22T22:01:55.457Z,13.95
2023-02-22T22:04:29.839Z,10.98
2023-02-22T22:06:59.351Z,6.82
2023-02-22T22:09:29.049Z,9.77
2023-02-22T22:11:58.392Z,10.05
2023-02-22T22:14:26.121Z,20.02
2023-02-22T22:17:00.232Z,12.88
2023-02-22T22:19:29.319Z,7.88
2023-02-22T22:21:56.838Z,7.97
2023-02-22T22:24:24.183Z,5.60
2023-02-22T22:26:54.811Z,6.85
2023-02-22T22:29:28.548Z,8.73
2023-02-22T22:31:55.527Z,11.95
2023-02-22T22:34:25.190Z,6.43
2023-02-22T22:36:51.677Z,5.28
2023-02-22T22:39:20.936Z,5.90
2023-02-22T22:41:48.345Z,3.85
2023-02-22T22:44:16.139Z,3.15
2023-02-22T22:46:43.581Z,3.42
2023-02-22T22:49:13.289Z,5.10
2023-02-22T22:51:41.125Z,3.08
2023-02-22T22:54:12.090Z,4.28
2023-02-22T22:56:38.725Z,3.95
2023-02-22T22:59:09.709Z,3.90
2023-02-22T23:01:40.612Z,5.13
2023-02-22T23:04:11.739Z,5.63
2023-02-22T23:06:41.071Z,5.55
2023-02-22T23:09:11.620Z,12.60
2023-02-22T23:11:44.593Z,7.28
2023-02-22T23:14:14.077Z,3.35
2023-02-22T23:16:42.407Z,3.55
2023-02-22T23:19:09.314Z,3.42
2023-02-22T23:21:39.175Z,5.20
2023-02-22T23:24:09.145Z,3.03
2023-02-22T23:26:38.501Z,4.38
2023-02-22T23:29:07.740Z,4.28
2023-02-22T23:31:39.597Z,2.55
2023-02-22T23:34:11.216Z,8.98
2023-02-22T23:36:44.602Z,5.47
2023-02-22T23:39:12.297Z,1.38
2023-02-22T23:41:38.788Z,1.95
2023-02-22T23:44:08.445Z,2.53
2023-02-22T23:46:39.279Z,3.63
2023-02-22T23:49:09.037Z,1.60
2023-02-22T23:51:39.681Z,4.32
2023-02-22T23:54:12.560Z,1.52
2023-02-22T23:56:47.291Z,5.65
2023-02-22T23:59:14.448Z,2.83
